Terminal Aerodrome Forecast
Issued by NWS Wilmington, OH

Home | Current Version | Previous Version | Text Only | Print | Product List | Glossary On
Versions: 1 2 3 4 5 6 7 8 9 10 11 12 13 14 15 16 17 18 19 20 21
000
FTUS41 KILN 011500 AAA
TAFILN
TAF AMD
KILN 011508Z 0115/0212 05003KT 2SM BR OVC002
     FM011600 05005KT 3SM BR BKN005
     FM011700 05003KT P6SM BKN010
     FM011900 08005KT P6SM FEW025
     FM012300 11004KT P6SM SKC
     FM020900 13004KT 4SM BR SCT200=

USA.gov is the U.S. government's official web portal to all federal, state and local government web resources and services.